| time (UTC) | temp F | wind direction | speed MPH | gust MPH | rain 1hr in | rain 24hr in | rain mn in | humidity % | barometer mb |
| 20260510005744 | 86 | 110 | 0.0 | 9.0 | 0.00 | 0.00 | 0.00 | 57 | 1005.4 |
| 20260510002743 | 88 | 109 | 1.0 | 10.0 | 0.00 | 0.00 | 0.00 | 48 | 1005.2 |
| 20260509232742 | 92 | 101 | 2.0 | 7.0 | 0.00 | 0.00 | 0.00 | 45 | 1004.9 |
| 20260509225741 | 92 | 107 | 0.0 | 8.0 | 0.00 | 0.00 | 0.00 | 44 | 1004.8 |
| 20260509222740 | 91 | 105 | 0.0 | 14.0 | 0.00 | 0.00 | 0.00 | 44 | 1004.8 |
| 20260509215739 | 94 | 79 | 0.0 | 6.0 | 0.00 | 0.00 | 0.00 | 43 | 1005.0 |
| 20260509212738 | 95 | 77 | 0.0 | 7.0 | 0.00 | 0.00 | 0.00 | 43 | 1005.3 |
| 20260509205738 | 93 | 72 | 0.0 | 12.0 | 0.00 | 0.00 | 0.00 | 45 | 1005.5 |
| 20260509202737 | 91 | 91 | 0.0 | 16.0 | 0.00 | 0.00 | 0.00 | 48 | 1005.9 |
| 20260509185735 | 90 | 321 | 0.0 | 13.0 | 0.00 | 0.00 | 0.00 | 52 | 1006.7 |
| 20260509182734 | 90 | 175 | 4.0 | 8.0 | 0.00 | 0.00 | 0.00 | 56 | 1007.1 |
| 20260509175733 | 87 | 169 | 0.0 | 6.0 | 0.00 | 0.00 | 0.00 | 63 | 1007.3 |
| 20260509172732 | 86 | 169 | 0.0 | 7.0 | 0.00 | 0.00 | 0.00 | 69 | 1008.0 |
| 20260509165732 | 84 | 169 | 0.0 | 12.0 | 0.00 | 0.00 | 0.00 | 74 | 1007.9 |
| 20260509162731 | 80 | 163 | 7.0 | 12.0 | 0.00 | 0.00 | 0.00 | 80 | 1008.1 |
| 20260509155730 | 77 | 156 | 7.0 | 12.0 | 0.00 | 0.00 | 0.00 | 87 | 1008.1 |
| 20260509152729 | 76 | 150 | 8.0 | 12.0 | 0.00 | 0.00 | 0.00 | 89 | 1007.8 |
| 20260509145728 | 76 | 140 | 0.0 | 14.0 | 0.00 | 0.00 | 0.00 | 90 | 1007.6 |
| 20260509142727 | 77 | 128 | 2.0 | 8.0 | 0.00 | 0.00 | 0.00 | 91 | 1007.4 |
| 20260509135727 | 74 | 127 | 6.0 | 7.0 | 0.00 | 0.00 | 0.00 | 96 | 1006.8 |
| 20260509125755 | 72 | 128 | 0.0 | 1.0 | 0.00 | 0.00 | 0.00 | 96 | 1007.8 |
| 20260509122755 | 72 | 128 | 0.0 | 0.0 | 0.00 | 0.00 | 0.00 | 96 | 1007.2 |
| 20260509115754 | 72 | 128 | 0.0 | 0.0 | 0.00 | 0.00 | 0.00 | 96 | 1007.4 |
| 20260509112753 | 72 | 128 | 0.0 | 6.0 | 0.00 | 0.00 | 0.00 | 96 | 1008.2 |
| 20260509105752 | 72 | 128 | 0.0 | 0.0 | 0.00 | 0.00 | 0.00 | 96 | 1008.8 |
| 20260509102751 | 72 | 128 | 0.0 | 0.0 | 0.00 | 0.00 | 0.00 | 95 | 1008.8 |
| 20260509095751 | 73 | 128 | 0.0 | 0.0 | 0.00 | 0.00 | 0.00 | 95 | 1008.0 |
| 20260509092750 | 73 | 128 | 0.0 | 0.0 | 0.00 | 0.00 | 0.00 | 95 | 1007.1 |
| 20260509085749 | 73 | 128 | 0.0 | 0.0 | 0.00 | 0.00 | 0.00 | 95 | 1007.3 |
| 20260509082749 | 73 | 128 | 0.0 | 0.0 | 0.00 | 0.00 | 0.00 | 94 | 1007.5 |
| 20260509075748 | 73 | 128 | 0.0 | 0.0 | 0.00 | 0.00 | 0.00 | 94 | 1007.7 |
| 20260509072747 | 73 | 128 | 0.0 | 0.0 | 0.00 | 0.00 | 0.00 | 93 | 1007.9 |
| 20260509065746 | 73 | 128 | 0.0 | 0.0 | 0.00 | 0.00 | 0.00 | 93 | 1008.0 |
| 20260509062745 | 73 | 128 | 0.0 | 10.0 | 0.00 | 0.00 | 0.00 | 93 | 1007.9 |
| 20260509055745 | 73 | 125 | 1.0 | 8.0 | 0.00 | 0.00 | 0.00 | 93 | 1007.3 |
| 20260509052744 | 73 | 119 | 2.0 | 7.0 | 0.00 | 0.00 | 0.00 | 93 | 1006.7 |
| 20260509045743 | 73 | 119 | 0.0 | 6.0 | 0.00 | 0.00 | 0.00 | 92 | 1006.5 |
| 20260509042742 | 73 | 119 | 0.0 | 2.0 | 0.00 | 0.00 | 0.00 | 91 | 1006.8 |
| 20260509035742 | 73 | 119 | 0.0 | 5.0 | 0.00 | 0.00 | 0.00 | 89 | 1007.1 |
| 20260509032741 | 74 | 119 | 1.0 | 6.0 | 0.00 | 0.00 | 0.00 | 89 | 1006.7 |
| 20260509025740 | 74 | 119 | 0.0 | 6.0 | 0.00 | 0.00 | 0.00 | 87 | 1006.7 |
| 20260509022739 | 75 | 119 | 0.0 | 5.0 | 0.00 | 0.00 | 0.00 | 86 | 1006.1 |
| 20260509012738 | 77 | 118 | 1.0 | 10.0 | 0.00 | 0.00 | 0.00 | 82 | 1005.3 |